sensor_id;sensor_type;location;lat;lon;timestamp;temperature;humidity
57088;DHT22;42965;52.846;6.614;2023-07-22T00:00:28;13.40;99.90
57088;DHT22;42965;52.846;6.614;2023-07-22T00:02:55;13.40;99.90
57088;DHT22;42965;52.846;6.614;2023-07-22T00:05:22;13.40;99.90
57088;DHT22;42965;52.846;6.614;2023-07-22T00:07:50;13.30;99.90
57088;DHT22;42965;52.846;6.614;2023-07-22T00:10:16;13.30;99.90
57088;DHT22;42965;52.846;6.614;2023-07-22T00:12:42;13.20;99.90
57088;DHT22;42965;52.846;6.614;2023-07-22T00:15:09;13.20;99.90
57088;DHT22;42965;52.846;6.614;2023-07-22T00:17:39;13.10;99.90
57088;DHT22;42965;52.846;6.614;2023-07-22T00:20:06;13.00;99.90
57088;DHT22;42965;52.846;6.614;2023-07-22T00:22:35;12.90;99.90
57088;DHT22;42965;52.846;6.614;2023-07-22T00:25:01;12.80;99.90
57088;DHT22;42965;52.846;6.614;2023-07-22T00:27:28;12.70;99.90
57088;DHT22;42965;52.846;6.614;2023-07-22T00:29:56;12.70;99.90
57088;DHT22;42965;52.846;6.614;2023-07-22T00:32:22;12.70;99.90
57088;DHT22;42965;52.846;6.614;2023-07-22T00:34:49;12.60;99.90
57088;DHT22;42965;52.846;6.614;2023-07-22T00:37:15;12.60;99.90
57088;DHT22;42965;52.846;6.614;2023-07-22T00:39:43;12.50;99.90
57088;DHT22;42965;52.846;6.614;2023-07-22T00:42:09;12.50;99.90
57088;DHT22;42965;52.846;6.614;2023-07-22T00:44:36;12.40;99.90
57088;DHT22;42965;52.846;6.614;2023-07-22T00:47:03;12.40;99.90
57088;DHT22;42965;52.846;6.614;2023-07-22T00:49:30;12.40;99.90
57088;DHT22;42965;52.846;6.614;2023-07-22T00:52:01;12.30;99.90
57088;DHT22;42965;52.846;6.614;2023-07-22T00:54:31;12.30;99.90
57088;DHT22;42965;52.846;6.614;2023-07-22T00:56:57;12.30;99.90
57088;DHT22;42965;52.846;6.614;2023-07-22T00:59:27;12.20;99.90
57088;DHT22;42965;52.846;6.614;2023-07-22T01:01:57;12.20;99.90
57088;DHT22;42965;52.846;6.614;2023-07-22T01:04:24;12.10;99.90
57088;DHT22;42965;52.846;6.614;2023-07-22T01:06:51;12.10;99.90
57088;DHT22;42965;52.846;6.614;2023-07-22T01:09:20;12.00;99.90
57088;DHT22;42965;52.846;6.614;2023-07-22T01:11:47;12.00;99.90
57088;DHT22;42965;52.846;6.614;2023-07-22T01:14:14;12.00;99.90
57088;DHT22;42965;52.846;6.614;2023-07-22T01:16:41;12.00;99.90
57088;DHT22;42965;52.846;6.614;2023-07-22T01:19:09;11.90;99.90
57088;DHT22;42965;52.846;6.614;2023-07-22T01:21:37;12.00;99.90
57088;DHT22;42965;52.846;6.614;2023-07-22T01:24:04;12.00;99.90
57088;DHT22;42965;52.846;6.614;2023-07-22T01:26:31;12.00;99.90
57088;DHT22;42965;52.846;6.614;2023-07-22T01:29:04;12.10;99.90
57088;DHT22;42965;52.846;6.614;2023-07-22T01:31:34;12.10;99.90
57088;DHT22;42965;52.846;6.614;2023-07-22T01:34:01;12.10;99.90
57088;DHT22;42965;52.846;6.614;2023-07-22T01:36:30;12.10;99.90
57088;DHT22;42965;52.846;6.614;2023-07-22T01:38:56;12.10;99.90
57088;DHT22;42965;52.846;6.614;2023-07-22T01:41:24;12.10;99.90
57088;DHT22;42965;52.846;6.614;2023-07-22T01:43:50;12.00;99.90
57088;DHT22;42965;52.846;6.614;2023-07-22T01:46:16;11.90;99.90
57088;DHT22;42965;52.846;6.614;2023-07-22T01:48:42;11.90;99.90
57088;DHT22;42965;52.846;6.614;2023-07-22T01:51:09;12.00;99.90
57088;DHT22;42965;52.846;6.614;2023-07-22T01:53:35;11.90;99.90
57088;DHT22;42965;52.846;6.614;2023-07-22T01:56:02;11.80;99.90
57088;DHT22;42965;52.846;6.614;2023-07-22T01:58:28;11.90;99.90
57088;DHT22;42965;52.846;6.614;2023-07-22T02:00:56;11.80;99.90
57088;DHT22;42965;52.846;6.614;2023-07-22T02:03:22;11.80;99.90
57088;DHT22;42965;52.846;6.614;2023-07-22T02:05:49;11.80;99.90
57088;DHT22;42965;52.846;6.614;2023-07-22T02:08:15;11.80;99.90
57088;DHT22;42965;52.846;6.614;2023-07-22T02:10:41;11.70;99.90
57088;DHT22;42965;52.846;6.614;2023-07-22T02:13:08;11.70;99.90
57088;DHT22;42965;52.846;6.614;2023-07-22T02:15:36;11.70;99.90
57088;DHT22;42965;52.846;6.614;2023-07-22T02:18:02;11.70;99.90
57088;DHT22;42965;52.846;6.614;2023-07-22T02:20:30;11.70;99.90
57088;DHT22;42965;52.846;6.614;2023-07-22T02:22:56;11.70;99.90
57088;DHT22;42965;52.846;6.614;2023-07-22T02:25:22;11.70;99.90
57088;DHT22;42965;52.846;6.614;2023-07-22T02:27:49;11.70;99.90
57088;DHT22;42965;52.846;6.614;2023-07-22T02:30:16;11.80;99.90
57088;DHT22;42965;52.846;6.614;2023-07-22T02:32:43;11.80;99.90
57088;DHT22;42965;52.846;6.614;2023-07-22T02:35:10;11.80;99.90
57088;DHT22;42965;52.846;6.614;2023-07-22T02:37:38;11.80;99.90
57088;DHT22;42965;52.846;6.614;2023-07-22T02:40:05;11.80;99.90
57088;DHT22;42965;52.846;6.614;2023-07-22T02:42:37;11.80;99.90
57088;DHT22;42965;52.846;6.614;2023-07-22T02:45:04;11.80;99.90
57088;DHT22;42965;52.846;6.614;2023-07-22T02:47:32;11.80;99.90
57088;DHT22;42965;52.846;6.614;2023-07-22T02:49:58;11.80;99.90
57088;DHT22;42965;52.846;6.614;2023-07-22T02:52:25;11.80;99.90
57088;DHT22;42965;52.846;6.614;2023-07-22T02:55:15;11.80;99.90
57088;DHT22;42965;52.846;6.614;2023-07-22T02:57:46;11.90;99.90
57088;DHT22;42965;52.846;6.614;2023-07-22T03:00:14;11.90;99.90
57088;DHT22;42965;52.846;6.614;2023-07-22T03:02:46;11.90;99.90
57088;DHT22;42965;52.846;6.614;2023-07-22T03:05:12;11.90;99.90
57088;DHT22;42965;52.846;6.614;2023-07-22T03:07:39;11.90;99.90
57088;DHT22;42965;52.846;6.614;2023-07-22T03:10:06;11.90;99.90
57088;DHT22;42965;52.846;6.614;2023-07-22T03:12:33;11.90;99.90
57088;DHT22;42965;52.846;6.614;2023-07-22T03:15:00;11.90;99.90
57088;DHT22;42965;52.846;6.614;2023-07-22T03:17:26;11.90;99.90
57088;DHT22;42965;52.846;6.614;2023-07-22T03:19:53;12.00;99.90
57088;DHT22;42965;52.846;6.614;2023-07-22T03:22:20;11.90;99.90
57088;DHT22;42965;52.846;6.614;2023-07-22T03:24:46;12.00;99.90
57088;DHT22;42965;52.846;6.614;2023-07-22T03:27:13;12.00;99.90
57088;DHT22;42965;52.846;6.614;2023-07-22T03:29:41;12.10;99.90
57088;DHT22;42965;52.846;6.614;2023-07-22T03:32:07;12.10;99.90
57088;DHT22;42965;52.846;6.614;2023-07-22T03:34:34;12.10;99.90
57088;DHT22;42965;52.846;6.614;2023-07-22T03:37:01;12.10;99.90
57088;DHT22;42965;52.846;6.614;2023-07-22T03:39:28;12.20;99.90
57088;DHT22;42965;52.846;6.614;2023-07-22T03:41:54;12.30;99.90
57088;DHT22;42965;52.846;6.614;2023-07-22T03:44:21;12.30;99.90
57088;DHT22;42965;52.846;6.614;2023-07-22T03:46:47;12.30;99.90
57088;DHT22;42965;52.846;6.614;2023-07-22T03:49:13;12.40;99.90
57088;DHT22;42965;52.846;6.614;2023-07-22T03:51:40;12.40;99.90
57088;DHT22;42965;52.846;6.614;2023-07-22T03:54:06;12.50;99.90
57088;DHT22;42965;52.846;6.614;2023-07-22T03:56:33;12.50;99.90
57088;DHT22;42965;52.846;6.614;2023-07-22T03:59:02;12.60;99.90
57088;DHT22;42965;52.846;6.614;2023-07-22T04:01:28;12.60;99.90
57088;DHT22;42965;52.846;6.614;2023-07-22T04:03:54;12.60;99.90
57088;DHT22;42965;52.846;6.614;2023-07-22T04:06:20;12.70;99.90
57088;DHT22;42965;52.846;6.614;2023-07-22T04:08:47;12.70;99.90
57088;DHT22;42965;52.846;6.614;2023-07-22T04:11:13;12.70;99.90
57088;DHT22;42965;52.846;6.614;2023-07-22T04:13:40;12.70;99.90
57088;DHT22;42965;52.846;6.614;2023-07-22T04:16:06;12.70;99.90
57088;DHT22;42965;52.846;6.614;2023-07-22T04:18:32;12.80;99.90
57088;DHT22;42965;52.846;6.614;2023-07-22T04:21:00;12.80;99.90
57088;DHT22;42965;52.846;6.614;2023-07-22T04:23:27;12.90;99.90
57088;DHT22;42965;52.846;6.614;2023-07-22T04:25:53;12.90;99.90
57088;DHT22;42965;52.846;6.614;2023-07-22T04:28:19;13.00;99.90
57088;DHT22;42965;52.846;6.614;2023-07-22T04:30:55;13.00;99.90
57088;DHT22;42965;52.846;6.614;2023-07-22T04:33:22;13.10;99.90
57088;DHT22;42965;52.846;6.614;2023-07-22T04:35:48;13.10;99.90
57088;DHT22;42965;52.846;6.614;2023-07-22T04:38:14;13.10;99.90
57088;DHT22;42965;52.846;6.614;2023-07-22T04:40:44;13.20;99.90
57088;DHT22;42965;52.846;6.614;2023-07-22T04:43:10;13.20;99.90
57088;DHT22;42965;52.846;6.614;2023-07-22T04:45:38;13.30;99.90
57088;DHT22;42965;52.846;6.614;2023-07-22T04:48:08;13.20;99.90
57088;DHT22;42965;52.846;6.614;2023-07-22T04:50:34;13.30;99.90
57088;DHT22;42965;52.846;6.614;2023-07-22T04:53:00;13.30;99.90
57088;DHT22;42965;52.846;6.614;2023-07-22T04:55:26;13.40;99.90
57088;DHT22;42965;52.846;6.614;2023-07-22T04:57:55;13.40;99.90
57088;DHT22;42965;52.846;6.614;2023-07-22T05:00:22;13.50;99.90
57088;DHT22;42965;52.846;6.614;2023-07-22T05:02:48;13.50;99.90
57088;DHT22;42965;52.846;6.614;2023-07-22T05:05:15;13.50;99.90
57088;DHT22;42965;52.846;6.614;2023-07-22T05:07:42;13.50;99.90
57088;DHT22;42965;52.846;6.614;2023-07-22T05:10:09;13.60;99.90
57088;DHT22;42965;52.846;6.614;2023-07-22T05:12:38;13.60;99.90
57088;DHT22;42965;52.846;6.614;2023-07-22T05:15:06;13.60;99.90
57088;DHT22;42965;52.846;6.614;2023-07-22T05:17:32;13.60;99.90
57088;DHT22;42965;52.846;6.614;2023-07-22T05:20:02;13.70;99.90
57088;DHT22;42965;52.846;6.614;2023-07-22T05:22:30;13.60;99.90
57088;DHT22;42965;52.846;6.614;2023-07-22T05:24:56;13.70;99.90
57088;DHT22;42965;52.846;6.614;2023-07-22T05:27:22;13.70;99.90
57088;DHT22;42965;52.846;6.614;2023-07-22T05:29:48;13.70;99.90
57088;DHT22;42965;52.846;6.614;2023-07-22T05:32:15;13.70;99.90
57088;DHT22;42965;52.846;6.614;2023-07-22T05:34:41;13.70;99.90
57088;DHT22;42965;52.846;6.614;2023-07-22T05:37:07;13.70;99.90
57088;DHT22;42965;52.846;6.614;2023-07-22T05:39:34;13.70;99.90
57088;DHT22;42965;52.846;6.614;2023-07-22T05:42:00;13.70;99.90
57088;DHT22;42965;52.846;6.614;2023-07-22T05:44:26;13.70;99.90
57088;DHT22;42965;52.846;6.614;2023-07-22T05:46:53;13.70;99.90
57088;DHT22;42965;52.846;6.614;2023-07-22T05:49:20;13.80;99.90
57088;DHT22;42965;52.846;6.614;2023-07-22T05:51:46;13.70;99.90
57088;DHT22;42965;52.846;6.614;2023-07-22T05:54:12;13.80;99.90
57088;DHT22;42965;52.846;6.614;2023-07-22T05:56:38;13.80;99.90
57088;DHT22;42965;52.846;6.614;2023-07-22T05:59:05;13.80;99.90
57088;DHT22;42965;52.846;6.614;2023-07-22T06:01:31;13.90;99.90
57088;DHT22;42965;52.846;6.614;2023-07-22T06:03:57;13.90;99.90
57088;DHT22;42965;52.846;6.614;2023-07-22T06:06:24;14.00;99.90
57088;DHT22;42965;52.846;6.614;2023-07-22T06:08:50;14.00;99.90
57088;DHT22;42965;52.846;6.614;2023-07-22T06:11:17;14.00;99.90
57088;DHT22;42965;52.846;6.614;2023-07-22T06:13:43;14.10;99.90
57088;DHT22;42965;52.846;6.614;2023-07-22T06:16:09;14.10;99.90
57088;DHT22;42965;52.846;6.614;2023-07-22T06:18:36;14.20;99.90
57088;DHT22;42965;52.846;6.614;2023-07-22T06:21:02;14.30;99.90
57088;DHT22;42965;52.846;6.614;2023-07-22T06:23:29;14.40;99.90
57088;DHT22;42965;52.846;6.614;2023-07-22T06:25:56;14.50;99.90
57088;DHT22;42965;52.846;6.614;2023-07-22T06:28:22;14.50;99.90
57088;DHT22;42965;52.846;6.614;2023-07-22T06:30:48;14.60;99.90
57088;DHT22;42965;52.846;6.614;2023-07-22T06:33:15;14.70;99.90
57088;DHT22;42965;52.846;6.614;2023-07-22T06:35:42;14.80;99.90
57088;DHT22;42965;52.846;6.614;2023-07-22T06:38:08;15.00;99.90
57088;DHT22;42965;52.846;6.614;2023-07-22T06:40:34;15.00;99.90
57088;DHT22;42965;52.846;6.614;2023-07-22T06:43:00;15.20;99.90
57088;DHT22;42965;52.846;6.614;2023-07-22T06:45:27;15.20;99.90
57088;DHT22;42965;52.846;6.614;2023-07-22T06:47:54;15.40;99.90
57088;DHT22;42965;52.846;6.614;2023-07-22T06:50:20;15.50;99.90
57088;DHT22;42965;52.846;6.614;2023-07-22T06:52:46;15.80;99.90
57088;DHT22;42965;52.846;6.614;2023-07-22T06:55:13;16.00;99.90
57088;DHT22;42965;52.846;6.614;2023-07-22T06:57:39;16.30;99.90
57088;DHT22;42965;52.846;6.614;2023-07-22T07:00:06;16.30;99.90
57088;DHT22;42965;52.846;6.614;2023-07-22T07:02:32;16.40;99.90
57088;DHT22;42965;52.846;6.614;2023-07-22T07:04:58;16.40;99.90
57088;DHT22;42965;52.846;6.614;2023-07-22T07:07:26;16.40;99.90
57088;DHT22;42965;52.846;6.614;2023-07-22T07:09:52;16.40;99.90
57088;DHT22;42965;52.846;6.614;2023-07-22T07:12:18;16.60;99.90
57088;DHT22;42965;52.846;6.614;2023-07-22T07:14:45;16.70;99.90
57088;DHT22;42965;52.846;6.614;2023-07-22T07:17:11;16.80;99.90
57088;DHT22;42965;52.846;6.614;2023-07-22T07:19:37;16.80;99.90
57088;DHT22;42965;52.846;6.614;2023-07-22T07:22:04;16.90;99.90
57088;DHT22;42965;52.846;6.614;2023-07-22T07:24:30;17.00;99.90
57088;DHT22;42965;52.846;6.614;2023-07-22T07:26:56;17.00;99.90
57088;DHT22;42965;52.846;6.614;2023-07-22T07:29:23;17.00;99.90
57088;DHT22;42965;52.846;6.614;2023-07-22T07:31:49;17.10;99.90
57088;DHT22;42965;52.846;6.614;2023-07-22T07:34:15;17.00;99.90
57088;DHT22;42965;52.846;6.614;2023-07-22T07:36:41;17.10;99.90
57088;DHT22;42965;52.846;6.614;2023-07-22T07:39:08;17.00;99.90
57088;DHT22;42965;52.846;6.614;2023-07-22T07:41:34;17.30;99.90
57088;DHT22;42965;52.846;6.614;2023-07-22T07:44:00;17.80;99.90
57088;DHT22;42965;52.846;6.614;2023-07-22T07:46:27;18.20;99.90
57088;DHT22;42965;52.846;6.614;2023-07-22T07:48:56;18.50;99.90
57088;DHT22;42965;52.846;6.614;2023-07-22T07:51:24;18.80;99.90
57088;DHT22;42965;52.846;6.614;2023-07-22T07:53:54;19.00;99.90
57088;DHT22;42965;52.846;6.614;2023-07-22T07:56:20;19.40;99.90
57088;DHT22;42965;52.846;6.614;2023-07-22T07:58:49;19.80;99.90
57088;DHT22;42965;52.846;6.614;2023-07-22T08:01:16;20.10;99.90
57088;DHT22;42965;52.846;6.614;2023-07-22T08:03:43;19.80;99.90
57088;DHT22;42965;52.846;6.614;2023-07-22T08:06:10;19.90;99.90
57088;DHT22;42965;52.846;6.614;2023-07-22T08:08:37;19.60;99.90
57088;DHT22;42965;52.846;6.614;2023-07-22T08:11:05;19.20;99.90
57088;DHT22;42965;52.846;6.614;2023-07-22T08:13:32;19.10;99.90
57088;DHT22;42965;52.846;6.614;2023-07-22T08:16:03;19.10;99.90
57088;DHT22;42965;52.846;6.614;2023-07-22T08:18:30;18.90;99.90
57088;DHT22;42965;52.846;6.614;2023-07-22T08:20:57;19.00;99.90
57088;DHT22;42965;52.846;6.614;2023-07-22T08:23:23;18.90;99.90
57088;DHT22;42965;52.846;6.614;2023-07-22T08:25:50;18.90;99.90
57088;DHT22;42965;52.846;6.614;2023-07-22T08:28:16;18.80;99.90
57088;DHT22;42965;52.846;6.614;2023-07-22T08:30:43;18.80;99.90
57088;DHT22;42965;52.846;6.614;2023-07-22T08:33:11;18.80;99.90
57088;DHT22;42965;52.846;6.614;2023-07-22T08:35:38;19.00;99.90
57088;DHT22;42965;52.846;6.614;2023-07-22T08:38:06;19.10;99.90
57088;DHT22;42965;52.846;6.614;2023-07-22T08:40:38;19.00;99.90
57088;DHT22;42965;52.846;6.614;2023-07-22T08:43:05;19.10;99.90
57088;DHT22;42965;52.846;6.614;2023-07-22T08:45:33;19.20;99.90
57088;DHT22;42965;52.846;6.614;2023-07-22T08:48:06;19.10;99.90
57088;DHT22;42965;52.846;6.614;2023-07-22T08:50:45;19.00;99.90
57088;DHT22;42965;52.846;6.614;2023-07-22T08:53:12;19.00;99.90
57088;DHT22;42965;52.846;6.614;2023-07-22T08:55:39;18.70;99.90
57088;DHT22;42965;52.846;6.614;2023-07-22T08:58:09;18.50;99.90
57088;DHT22;42965;52.846;6.614;2023-07-22T09:00:39;18.40;99.90
57088;DHT22;42965;52.846;6.614;2023-07-22T09:03:06;18.30;99.90
57088;DHT22;42965;52.846;6.614;2023-07-22T09:05:33;18.10;99.90
57088;DHT22;42965;52.846;6.614;2023-07-22T09:08:06;18.00;99.90
57088;DHT22;42965;52.846;6.614;2023-07-22T09:10:33;17.70;99.90
57088;DHT22;42965;52.846;6.614;2023-07-22T09:13:01;17.60;99.90
57088;DHT22;42965;52.846;6.614;2023-07-22T09:15:28;17.50;99.90
57088;DHT22;42965;52.846;6.614;2023-07-22T09:17:55;17.40;99.90
57088;DHT22;42965;52.846;6.614;2023-07-22T09:20:21;17.30;99.90
57088;DHT22;42965;52.846;6.614;2023-07-22T09:22:50;17.30;99.90
57088;DHT22;42965;52.846;6.614;2023-07-22T09:25:22;17.30;99.90
57088;DHT22;42965;52.846;6.614;2023-07-22T09:27:51;17.50;99.90
57088;DHT22;42965;52.846;6.614;2023-07-22T09:30:35;17.50;99.90
57088;DHT22;42965;52.846;6.614;2023-07-22T09:33:04;17.30;99.90
57088;DHT22;42965;52.846;6.614;2023-07-22T09:35:43;17.20;99.90
57088;DHT22;42965;52.846;6.614;2023-07-22T09:38:09;17.10;99.90
57088;DHT22;42965;52.846;6.614;2023-07-22T09:40:36;17.10;99.90
57088;DHT22;42965;52.846;6.614;2023-07-22T09:43:02;17.10;99.90
57088;DHT22;42965;52.846;6.614;2023-07-22T09:45:30;17.20;99.90
57088;DHT22;42965;52.846;6.614;2023-07-22T09:47:58;17.20;99.90
57088;DHT22;42965;52.846;6.614;2023-07-22T09:50:26;17.50;99.90
57088;DHT22;42965;52.846;6.614;2023-07-22T09:52:58;17.80;99.90
57088;DHT22;42965;52.846;6.614;2023-07-22T09:55:27;18.20;99.90
57088;DHT22;42965;52.846;6.614;2023-07-22T09:58:05;18.70;99.90
57088;DHT22;42965;52.846;6.614;2023-07-22T10:00:34;18.90;99.90
57088;DHT22;42965;52.846;6.614;2023-07-22T10:03:02;19.10;99.90
57088;DHT22;42965;52.846;6.614;2023-07-22T10:05:34;19.30;99.90
57088;DHT22;42965;52.846;6.614;2023-07-22T10:08:02;19.60;99.90
57088;DHT22;42965;52.846;6.614;2023-07-22T10:10:31;19.80;99.90
57088;DHT22;42965;52.846;6.614;2023-07-22T10:12:59;19.70;99.90
57088;DHT22;42965;52.846;6.614;2023-07-22T10:15:28;19.60;99.90
57088;DHT22;42965;52.846;6.614;2023-07-22T10:18:03;19.40;99.90
57088;DHT22;42965;52.846;6.614;2023-07-22T10:20:34;19.20;99.90
57088;DHT22;42965;52.846;6.614;2023-07-22T10:23:02;19.00;99.90
57088;DHT22;42965;52.846;6.614;2023-07-22T10:25:30;18.80;99.90
57088;DHT22;42965;52.846;6.614;2023-07-22T10:27:57;18.70;99.90
57088;DHT22;42965;52.846;6.614;2023-07-22T10:30:23;18.60;99.90
57088;DHT22;42965;52.846;6.614;2023-07-22T10:32:52;18.60;99.90
57088;DHT22;42965;52.846;6.614;2023-07-22T10:38:11;18.60;99.90
57088;DHT22;42965;52.846;6.614;2023-07-22T10:40:54;18.60;99.90
57088;DHT22;42965;52.846;6.614;2023-07-22T10:43:29;18.70;99.90
57088;DHT22;42965;52.846;6.614;2023-07-22T10:45:58;18.70;99.90
57088;DHT22;42965;52.846;6.614;2023-07-22T10:48:27;18.70;99.90
57088;DHT22;42965;52.846;6.614;2023-07-22T10:50:58;18.70;99.90
57088;DHT22;42965;52.846;6.614;2023-07-22T10:53:30;18.50;99.90
57088;DHT22;42965;52.846;6.614;2023-07-22T10:56:12;18.30;99.90
57088;DHT22;42965;52.846;6.614;2023-07-22T11:06:32;18.00;99.90
57088;DHT22;42965;52.846;6.614;2023-07-22T11:08:58;18.00;99.90
57088;DHT22;42965;52.846;6.614;2023-07-22T11:11:45;17.90;99.90
57088;DHT22;42965;52.846;6.614;2023-07-22T11:14:21;17.70;99.90
57088;DHT22;42965;52.846;6.614;2023-07-22T11:16:48;17.50;99.90
57088;DHT22;42965;52.846;6.614;2023-07-22T11:19:18;17.40;99.90
57088;DHT22;42965;52.846;6.614;2023-07-22T11:21:45;17.30;99.90
57088;DHT22;42965;52.846;6.614;2023-07-22T11:24:12;17.10;99.90
57088;DHT22;42965;52.846;6.614;2023-07-22T11:26:39;16.90;99.90
57088;DHT22;42965;52.846;6.614;2023-07-22T11:29:07;16.60;99.90
57088;DHT22;42965;52.846;6.614;2023-07-22T11:31:41;16.40;99.90
57088;DHT22;42965;52.846;6.614;2023-07-22T11:34:16;16.20;99.90
57088;DHT22;42965;52.846;6.614;2023-07-22T11:36:43;16.00;99.90
57088;DHT22;42965;52.846;6.614;2023-07-22T11:39:11;16.00;99.90
57088;DHT22;42965;52.846;6.614;2023-07-22T11:41:42;16.00;99.90
57088;DHT22;42965;52.846;6.614;2023-07-22T11:44:10;15.90;99.90
57088;DHT22;42965;52.846;6.614;2023-07-22T11:46:51;15.90;99.90
57088;DHT22;42965;52.846;6.614;2023-07-22T11:49:25;16.00;99.90
57088;DHT22;42965;52.846;6.614;2023-07-22T11:51:56;16.00;99.90
57088;DHT22;42965;52.846;6.614;2023-07-22T11:54:23;16.10;99.90
57088;DHT22;42965;52.846;6.614;2023-07-22T11:56:50;16.30;99.90
57088;DHT22;42965;52.846;6.614;2023-07-22T11:59:16;16.40;99.90
57088;DHT22;42965;52.846;6.614;2023-07-22T12:01:44;16.50;99.90
57088;DHT22;42965;52.846;6.614;2023-07-22T12:04:13;16.60;99.90
57088;DHT22;42965;52.846;6.614;2023-07-22T12:06:41;16.70;99.90
57088;DHT22;42965;52.846;6.614;2023-07-22T12:09:08;16.60;99.90
57088;DHT22;42965;52.846;6.614;2023-07-22T12:11:37;16.60;99.90
57088;DHT22;42965;52.846;6.614;2023-07-22T12:14:12;16.70;99.90
57088;DHT22;42965;52.846;6.614;2023-07-22T12:16:40;16.70;99.90
57088;DHT22;42965;52.846;6.614;2023-07-22T12:19:10;16.70;99.90
57088;DHT22;42965;52.846;6.614;2023-07-22T12:21:36;16.70;99.90
57088;DHT22;42965;52.846;6.614;2023-07-22T12:24:02;16.70;99.90
57088;DHT22;42965;52.846;6.614;2023-07-22T12:26:30;16.80;99.90
57088;DHT22;42965;52.846;6.614;2023-07-22T12:28:56;16.80;99.90
57088;DHT22;42965;52.846;6.614;2023-07-22T12:31:23;16.90;99.90
57088;DHT22;42965;52.846;6.614;2023-07-22T12:33:49;16.90;99.90
57088;DHT22;42965;52.846;6.614;2023-07-22T12:36:15;16.80;99.90
57088;DHT22;42965;52.846;6.614;2023-07-22T12:38:42;16.80;99.90
57088;DHT22;42965;52.846;6.614;2023-07-22T12:41:08;16.80;99.90
57088;DHT22;42965;52.846;6.614;2023-07-22T12:43:34;16.80;99.90
57088;DHT22;42965;52.846;6.614;2023-07-22T12:46:01;16.80;99.90
57088;DHT22;42965;52.846;6.614;2023-07-22T12:48:27;16.70;99.90
57088;DHT22;42965;52.846;6.614;2023-07-22T12:50:53;16.60;99.90
57088;DHT22;42965;52.846;6.614;2023-07-22T12:53:20;16.40;99.90
57088;DHT22;42965;52.846;6.614;2023-07-22T12:55:47;16.30;99.90
57088;DHT22;42965;52.846;6.614;2023-07-22T12:58:14;16.40;99.90
57088;DHT22;42965;52.846;6.614;2023-07-22T13:00:40;16.40;99.90
57088;DHT22;42965;52.846;6.614;2023-07-22T13:03:06;16.30;99.90
57088;DHT22;42965;52.846;6.614;2023-07-22T13:05:33;16.20;99.90
57088;DHT22;42965;52.846;6.614;2023-07-22T13:07:59;16.20;99.90
57088;DHT22;42965;52.846;6.614;2023-07-22T13:10:30;16.00;99.90
57088;DHT22;42965;52.846;6.614;2023-07-22T13:12:58;16.10;99.90
57088;DHT22;42965;52.846;6.614;2023-07-22T13:15:24;16.00;99.90
57088;DHT22;42965;52.846;6.614;2023-07-22T13:17:50;15.90;99.90
57088;DHT22;42965;52.846;6.614;2023-07-22T13:20:16;16.00;99.90
57088;DHT22;42965;52.846;6.614;2023-07-22T13:22:43;16.00;99.90
57088;DHT22;42965;52.846;6.614;2023-07-22T13:25:09;16.00;99.90
57088;DHT22;42965;52.846;6.614;2023-07-22T13:27:35;16.00;99.90
57088;DHT22;42965;52.846;6.614;2023-07-22T13:30:06;16.00;99.90
57088;DHT22;42965;52.846;6.614;2023-07-22T13:32:32;16.00;99.90
57088;DHT22;42965;52.846;6.614;2023-07-22T13:34:58;16.00;99.90
57088;DHT22;42965;52.846;6.614;2023-07-22T13:37:28;16.10;99.90
57088;DHT22;42965;52.846;6.614;2023-07-22T13:39:54;16.20;99.90
57088;DHT22;42965;52.846;6.614;2023-07-22T13:42:21;16.30;99.90
57088;DHT22;42965;52.846;6.614;2023-07-22T13:44:47;16.50;99.90
57088;DHT22;42965;52.846;6.614;2023-07-22T13:47:13;16.60;99.90
57088;DHT22;42965;52.846;6.614;2023-07-22T13:49:40;16.70;99.90
57088;DHT22;42965;52.846;6.614;2023-07-22T13:52:06;16.80;99.90
57088;DHT22;42965;52.846;6.614;2023-07-22T13:54:32;16.90;99.90
57088;DHT22;42965;52.846;6.614;2023-07-22T13:57:02;17.00;99.90
57088;DHT22;42965;52.846;6.614;2023-07-22T13:59:28;17.10;99.90
57088;DHT22;42965;52.846;6.614;2023-07-22T14:01:55;17.20;99.90
57088;DHT22;42965;52.846;6.614;2023-07-22T14:04:21;17.20;99.90
57088;DHT22;42965;52.846;6.614;2023-07-22T14:06:49;17.30;99.90
57088;DHT22;42965;52.846;6.614;2023-07-22T14:09:15;17.20;99.90
57088;DHT22;42965;52.846;6.614;2023-07-22T14:11:42;17.30;99.90
57088;DHT22;42965;52.846;6.614;2023-07-22T14:14:08;17.30;99.90
57088;DHT22;42965;52.846;6.614;2023-07-22T14:16:34;17.20;99.90
57088;DHT22;42965;52.846;6.614;2023-07-22T14:19:00;17.30;99.90
57088;DHT22;42965;52.846;6.614;2023-07-22T14:21:27;17.30;99.90
57088;DHT22;42965;52.846;6.614;2023-07-22T14:23:53;17.30;99.90
57088;DHT22;42965;52.846;6.614;2023-07-22T14:26:20;17.30;99.90
57088;DHT22;42965;52.846;6.614;2023-07-22T14:28:47;17.30;99.90
57088;DHT22;42965;52.846;6.614;2023-07-22T14:31:13;17.30;99.90
57088;DHT22;42965;52.846;6.614;2023-07-22T14:33:39;17.40;99.90
57088;DHT22;42965;52.846;6.614;2023-07-22T14:36:06;17.60;99.90
57088;DHT22;42965;52.846;6.614;2023-07-22T14:38:32;17.70;99.90
57088;DHT22;42965;52.846;6.614;2023-07-22T14:40:58;17.50;99.90
57088;DHT22;42965;52.846;6.614;2023-07-22T14:43:26;17.60;99.90
57088;DHT22;42965;52.846;6.614;2023-07-22T14:45:54;17.50;99.90
57088;DHT22;42965;52.846;6.614;2023-07-22T14:48:20;17.50;99.90
57088;DHT22;42965;52.846;6.614;2023-07-22T14:50:46;17.30;99.90
57088;DHT22;42965;52.846;6.614;2023-07-22T14:53:12;17.30;99.90
57088;DHT22;42965;52.846;6.614;2023-07-22T14:55:39;17.10;99.90
57088;DHT22;42965;52.846;6.614;2023-07-22T14:58:06;17.00;99.90
57088;DHT22;42965;52.846;6.614;2023-07-22T15:00:32;16.80;99.90
57088;DHT22;42965;52.846;6.614;2023-07-22T15:02:59;16.70;99.90
57088;DHT22;42965;52.846;6.614;2023-07-22T15:05:26;16.60;99.90
57088;DHT22;42965;52.846;6.614;2023-07-22T15:07:53;16.50;99.90
57088;DHT22;42965;52.846;6.614;2023-07-22T15:10:19;16.40;99.90
57088;DHT22;42965;52.846;6.614;2023-07-22T15:12:45;16.30;99.90
57088;DHT22;42965;52.846;6.614;2023-07-22T15:15:12;16.20;99.90
57088;DHT22;42965;52.846;6.614;2023-07-22T15:17:38;16.00;99.90
57088;DHT22;42965;52.846;6.614;2023-07-22T15:20:05;16.00;99.90
57088;DHT22;42965;52.846;6.614;2023-07-22T15:22:32;15.90;99.90
57088;DHT22;42965;52.846;6.614;2023-07-22T15:24:58;16.00;99.90
57088;DHT22;42965;52.846;6.614;2023-07-22T15:27:25;16.00;99.90
57088;DHT22;42965;52.846;6.614;2023-07-22T15:29:51;15.90;99.90
57088;DHT22;42965;52.846;6.614;2023-07-22T15:32:17;16.00;99.90
57088;DHT22;42965;52.846;6.614;2023-07-22T15:34:43;16.00;99.90
57088;DHT22;42965;52.846;6.614;2023-07-22T15:37:10;16.00;99.90
57088;DHT22;42965;52.846;6.614;2023-07-22T15:39:36;16.00;99.90
57088;DHT22;42965;52.846;6.614;2023-07-22T15:42:02;16.00;99.90